2014 Race Results

Bib# Time Last Name First Name Gender Age City State Age Group Race
525 1:24:00 Nader Caren M 17 Santa Monica CA 0-19 10 Mile
502 1:29:55 Van Norden Bryan M 25 monrovia CA 20-29 10 Mile
527 1:31:10 Flaigmore Maddie F 24 San Diego CA 20-29 10 Mile
514 1:34:00 Frye Gregory M 42 Valverde CA 40-49 10 Mile
516 1:37:17 Barrington Don M 53 Lebec CA 50-59 10 Mile
529 1:39:20 Flanigan Jim M 63 Davis CA 60-69 10 Mile
496 1:42:16 Bunnell James M 31 Edwards CA 30-39 10 Mile
510 1:42:42 Jesse Tracy F 29 Diamond Bar CA 20-29 10 Mile
535 1:43:13 Shadbourne Todd M 47 Elk Grove CA 40-49 10 Mile
519 1:43:40 Sorenson Holly F 45 Lake Isabella CA 40-49 10 Mile
470 1:46:17 Meyer Jason M 34 Diamond Bar CA 30-39 10 Mile
487 1:49:00 Diorio Kathy F 58 Rosamond CA 50-59 10 Mile
473 1:49:58 Nielson Wesley M 35 Pomona CA 30-39 10 Mile
520 1:50:02 Edwards Janet F 48 Tehachapi CA 40-49 10 Mile
485 1:50:10 Gocke Christopher M 35 Bellevue WA 30-39 10 Mile
536 1:51:14 Marcelli Mark M 54 San Diego CA 50-59 10 Mile
491 1:52:23 Patton Keven M 39 Tuolumne CA 30-39 10 Mile
501 1:52:37 Peters Rebeca F 50 Sierra Madre CA 50-59 10 Mile
528 1:52:44 Griffin David M 51 Panama City Beach FL 50-59 10 Mile
522 1:53:11 Samuelson Mark M 59 Rocklin CA 50-59 10 Mile
515 1:54:28 Garry Paul M 48 Santa Monica CA 40-49 10 Mile
526 1:57:01 Smith Seneca F 42 Independence CA 40-49 10 Mile
498 1:57:50 Cwoik Kevin M 56 Ventura CA 50-59 10 Mile
504 1:58:57 Cla Cindy F 60 Lamy NM 60-69 10 Mile
505 1:59:51 Gocke Michael M 36 Reno NV 30-39 10 Mile
503 2:01:36 Placencia Daun F 31 Ridgecrest CA 30-39 10 Mile
492 2:02:06 Epstein Elizabeth F 58 Long Beach CA 50-59 10 Mile
477 2:02:26 Blake Kelly F 28 Ridgecrest CA 20-29 10 Mile
495 2:04:06 Khamsouk Arahate M 38 California City CA 30-39 10 Mile
509 2:05:31 Toler Janet F 44 Ridgecrest CA 40-49 10 Mile
490 2:06:26 Lane Melanie F 35 Tuolumne CA 30-39 10 Mile
523 2:07:43 Schilz Carole F 55 Mammoth Lakes CA 50-59 10 Mile
467 2:11:12 Dempsey Janet F 53 Palmdale CA 50-59 10 Mile
472 2:11:24 Trudeau Emily F 28 Pomona CA 20-29 10 Mile
499 2:14:00 Koeth Diane F 53 Tehachapi CA 50-59 10 Mile
469 2:14:28 Chin Brian M 58 Bakersfield CA 50-59 10 Mile
479 2:14:45 Toth Michael M 31 Corona CA 30-39 10 Mile
484 2:17:00 Thomason Brenda F 60 Monrovia CA 60-69 10 Mile
474 2:17:47 Kwan Katherine F 31 Los Angeles CA 30-39 10 Mile
518 2:22:01 Scholten-Clayton Tineke F 59 Altadena CA 50-59 10 Mile
508 2:23:47 Wooster Carly F 36 Gardena CA 30-39 10 Mile
521 2:28:26 Whitehair Karen F 46 Irvine CA 40-49 10 Mile
497 2:30:37 Swallow John M 71 Saugus CA 70-79 10 Mile
481 2:34:52 McCrossen Joe M 39 Walnut Creek CA 30-39 10 Mile
534 2:36:29 Lien Bob M 64 Lucerne Valley CA 60-69 10 Mile
506 2:40:31 Swallow Betsy F 62 Saugus CA 60-69 10 Mile
468 2:40:41 Dempsey Charles M 52 Palmdale CA 50-59 10 Mile
517 2:42:41 Barrington Robin F 55 Lebec CA 50-59 10 Mile
471 2:44:55 Jorgensen Debra F 54 Canyon Country CA 50-59 10 Mile
524 2:46:32 Long Melissa F 58 Lebec CA 50-59 10 Mile
493 2:46:33 Lin Winson M 30 Campbell CA 30-39 10 Mile
494 2:46:33 Hui Matthew M 24 San Francisco CA 20-29 10 Mile
486 2:56:49 Iocco Dennis M 63 Claremont CA 60-69 10 Mile
530 3:04:22 Cole Barbara F 50 NewPort Beach CA 50-59 10 Mile
507 3:15:37 Gilmore Nancy F 69 Monterey Park CA 60-69 10 Mile
531 3:15:47 Steinman Connie F 50 Placerville CA 50-59 10 Mile
532 3:15:47 Matthiesen Peter M 54 Placerville CA 50-59 10 Mile
512 3:26:24 Vandewater Sophia F 38 San Diego CA 30-39 10 Mile
483 3:26:30 Troupe Caroline F 62 Thousand Oaks CA 60-69 10 Mile
476 3:52:15 Renteria Delia F 37 Long Beach CA 30-39 10 Mile
488 4:04:23 Diorio Joe M 67 Rosamond CA 60-69 10 Mile
475 NS bengelsdorf pete M 66 newbury park CA 60-69 10 Mile
478 NS Ganske Sheree F 58 South Lake Tahoe CA 50-59 10 Mile
480 NS Toth Marissa F 28 Corona CA 20-29 10 Mile
482 NS mauldin tonya F 66 anaheim CA 60-69 10 Mile
489 NS Painter Darcy F 55 Edwards CA 50-59 10 Mile
500 NS Sutton Debi F 56 Tehachapi CA 50-59 10 Mile
511 NS Cullenward Martin M 60 Cool CA 60-69 10 Mile
513 NS Rios Chris M 70 Ridgecrest CA 70-79 10 Mile
56 4:52:22 Cone Travis M 31 Glendora CA 30-39 50K
80 5:32:57 Forbes Brian M 38 Sonora CA 30-39 50K
77 5:38:07 Cheng Jack M 41 temple city CA 40-49 50K
65 5:41:38 Gimenez Kim F 48 Long Beach CA 40-49 50K
53 5:56:42 Valentin Sylvere M 35 Long Beach CA 30-39 50K
46 6:17:58 Cady Michael M 38 Pasadena CA 30-39 50K
72 6:25:50 Benov Michael M 57 Thousand Okas CA 50-59 50K
50 6:27:41 Heinrich Dawn F 28 Sausalito CA 20-29 50K
48 6:32:38 Holmes Jennifer F 41 Mammoth lakes CA 40-49 50K
49 6:32:38 Boyer Kami F 44 Mammoth Lakes CA 40-49 50K
81 6:38:41 Scharry Sarah F 38 Highland CA 30-39 50K
66 6:39:41 Johanson Allison F 25 Fairfield CA 20-29 50K
62 6:42:16 DiProspero Tony M 57 Thousand Okas CA 50-59 50K
74 6:48:24 Toler Eric M 46 Ridgecrest CA 40-49 50K
83 6:52:16 Purtle Sandy M 58 Cypress CO 50-59 50K
57 6:58:26 Ball John M 55 Corona CA 50-59 50K
55 7:03:22 Kampmann Bjorn M 40 Chino Hills CA 40-49 50K
68 7:03:22 Ong Gerry M 43 Monterey Park CA 40-49 50K
73 7:03:25 Hsin Johnny M 54 Chino Hills, CA 50-59 50K
40 7:03:40 Drozd Jennifer F 34 Coalville UT 30-39 50K
86 7:07:43 Radich John M 59 Monovia CA 50-59 50K
42 7:13:06 Stickels Leah F 32 San diego CA 30-39 50K
60 7:17:04 Raglin Ryan M 27 Ridgecerst CA 20-29 50K
82 7:18:51 Bullis Grant M 47 Newport Beach CA 40-49 50K
51 7:36:33 Puerto mauricio M 40 Port Hueneme CA 40-49 50K
63 7:51:13 Olson Mark M 65 Covina CA 60-69 50K
70 8:05:09 Denis Trafecanty M 70 Santa Ysabel CA 70-79 50K
71 8:05:09 Kimmerly Glenda F 61 Santa Ysabel CA 60-69 50K
79 8:09:00 Ryne Mark M 58 La Crescenta CA 50-59 50K
85 9:01:29 Brennan James M 54 Granada Hills CA 50-59 50K
76 9:03:21 Maxwell Bodee F 52 Sunland CA 50-59 50K
84 9:33:40 Downs Jimmy M 46 Arcadia CA 40-49 50K
75 10:30:00 Pagliuso Josh M 45 sunland CA 40-49 50K
59 11:08:00 Dickey Bill M 73 Arcadia CA 70-79 50K
87 DNF Davis Warren M 30 CA 30-39 50K
41 NS Vanderpot John M 49 El Cajon CA 40-49 50K
43 NS Joshi Divya F 44 Redondo beach CA 40-49 50K
44 NS Brewer Adam M 28 Chula Vista CA 20-29 50K
45 NS Egleston Michael M 30 Clovis CA 30-39 50K
47 NS Wilhelm Matthew M 26 South Lake Tahoe CA 20-29 50K
52 NS Blake Brian M 33 San Francisco CA 30-39 50K
54 NS Killeen Gerald M 61 Ridgecrest CA 60-69 50K
58 NS Schulten Paul M 68 Monavia CA 60-69 50K
61 NS Funk Steven M 61 Alta Loma CA 60-69 50K
64 NS Valentine Richard M 66 Duck Creek Village UT 60-69 50K
67 NS Johanson Luke M 25 Fairfield CA 20-29 50K
217 3:51:00 Herr Rick M 46 Corona CA 40-49 Marathon
230 3:55:41 Ruiz Matthew M 32 Jurupa Valley CA 30-39 Marathon
252 4:16:47 Barton Michelle F 42 Laguna Niguel CA 40-49 Marathon
201 4:28:32 KASZKUR PIOTR M 32 BISHOP CA 30-39 Marathon
250 4:40:02 Dobrowalski Jay M 34 Moorpark CA 30-39 Marathon
262 4:40:17 Matyazic Mark M 48 Irvine CA 40-49 Marathon
245 4:46:15 Toriello Catherine F 32 South Pasadena CA 30-39 Marathon
253 4:48:33 Hampton John M 46 Long Beach CA 40-49 Marathon
249 4:48:53 Ratsch Christian M 46 Pacific Palisades CA 40-49 Marathon
222 4:50:14 Bassett Jeff M 26 Lone Pine CA 20-29 Marathon
231 4:57:29 French Marie F 33 Mammoth Lakes CA 30-39 Marathon
208 4:57:39 cogan britt F 27 mammoth lakes CA 20-29 Marathon
234 5:00:43 Hoover Brentt M 38 San Diego CA 30-39 Marathon
227 5:03:04 Rowe Ellen F 54 Ann Arbor MI 50-59 Marathon
254 5:09:41 Krings-Lien Sarah F 29 Lucerne Valley CA 20-29 Marathon
209 5:13:23 Hartman John M 36 Covina CA 30-39 Marathon
235 5:22:27 Goldberg Liz F 40 Los Gatos CA 40-49 Marathon
251 5:27:18 Tipton Shannon F 29 Lucerne Valley CA 20-29 Marathon
69 5:34:41 Duke Gavin M 50 Nashville TN 50-59 Marathon
247 5:39:54 Toriello Alejandro M 32 South Pasadena CA 30-39 Marathon
226 5:41:01 Clark Jack M 69 Lamy NM 60-69 Marathon
218 5:50:19 Holt Julia F 46 Corona CA 40-49 Marathon
223 5:50:19 Spenceley Bill M 63 Arcata CA 60-69 Marathon
202 5:59:58 Lyman Johnnie F 31 San Diego CA 30-39 Marathon
205 6:19:52 Bassler Mary F 46 Mammoth Lakes CA 40-49 Marathon
232 6:20:24 Riese Larry M 55 Fountain Valley CA 50-59 Marathon
243 6:34:31 Ryder Jeff M 55 Westminister CA 50-59 Marathon
237 6:43:31 Brilliant Larry M 64 Lake Tahoe CA 60-69 Marathon
206 6:45:11 Haferkamp Steve M 40 Carlsbad CA 40-49 Marathon
219 7:15:54 carey john M 69 boron CA 60-69 Marathon
236 7:37:28 Munis Christopher M 21 Lone Pine CA 20-29 Marathon
242 7:37:28 Ellis Larry M 70 Lone Pine CA 70-79 Marathon
238 7:42:31 Cullenward Michele F 57 Cool CA 50-59 Marathon
240 7:42:31 Johnson Karen F 58 Pasadena CA 50-59 Marathon
213 7:42:32 Iocco Jan F 51 Claremont CA 50-59 Marathon
229 7:42:32 Hallimore Leslie F 62 San Gabriel CA 60-69 Marathon
239 8:28:23 Cascegno Jayme F 54 Sierra MAdre CA 50-59 Marathon
248 8:36:38 Powers Marvin M 85 Lancaster CA 80+ Marathon
225 8:42:32 Vangilder Maria F 60 San Gabriel CA 60-69 Marathon
215 8:52:59 Lawrence William M 72 Playa Del Rey CA 70-79 Marathon
241 8:53:57 Hammer Torkil M 68 Newbury Park CA 60-69 Marathon
212 9:30:09 Spenker Chris M 73 Long Beach CA 70-79 Marathon
224 9:33:41 Vangilder Robert M 64 San Gabriel CA 60-69 Marathon
204 9:52:04 Bassler Karl M 44 Laguna Beach CA 40-49 Marathon
203 9:52:42 Warden Greg M 43 vista CA 40-49 Marathon
228 9:54:09 Bassler Gloria F 76 Palos Verdes Peninsula CA 70-79 Marathon
214 10:33:48 O’Hara Tom M 71 Arcadia CA 70-79 Marathon
233 DNF Jaggers Scott M 32 Riverside CA 30-39 Marathon
246 DNF Rodin Gaylon M 70 Saugus CA 70-79 Marathon
207 NS Bengelsdorf Kim F 42 newbury park CA 40-49 Marathon
210 NS Narang Prineha F 23 Studio City CA 20-29 Marathon
211 NS armas octavio M 53 La Mesa CA 50-59 Marathon
216 NS Wolf Carol F 52 Ridgecerst CA 50-59 Marathon
221 NS Sheridan Gary M 62 Los Angeles CA 60-69 Marathon